Time;durP1;ratioP1;P1;durP2;ratioP2;P2;SDS_P1;SDS_P2;PMS_P1;PMS_P2;Temp;Humidity;BMP_temperature;BMP_pressure;BME280_temperature;BME280_humidity;BME280_pressure;Samples;Min_cycle;Max_cycle;Signal;HPM_P1;HPM_P2
2022/12/28 05:22:39;;;;;;;5.70;0.82;;;;;;;2.96;100.00;100683.00;5093217;28;20347;-67
2022/12/28 05:25:05;;;;;;;0.77;0.52;;;;;;;3.46;100.00;100696.81;5092475;28;20109;-67
2022/12/28 05:27:30;;;;;;;0.95;0.60;;;;;;;3.81;100.00;100699.34;5087854;28;20467;-67
2022/12/28 05:29:56;;;;;;;0.47;0.40;;;;;;;4.40;100.00;100696.44;5071806;28;20119;-68
2022/12/28 05:32:21;;;;;;;0.40;0.40;;;;;;;4.73;100.00;100689.41;5073228;28;20041;-67
2022/12/28 05:34:47;;;;;;;0.30;0.30;;;;;;;5.00;100.00;100683.66;5071975;28;20068;-67
2022/12/28 05:37:12;;;;;;;0.40;0.40;;;;;;;5.29;100.00;100673.34;5071924;28;20052;-67
2022/12/28 05:39:37;;;;;;;0.95;0.50;;;;;;;5.76;98.49;100665.81;5072917;28;20049;-67
2022/12/28 05:42:03;;;;;;;0.30;0.30;;;;;;;5.83;98.14;100664.31;5071630;28;20033;-67
2022/12/28 05:44:29;;;;;;;0.60;0.60;;;;;;;5.98;96.20;100663.84;5071631;28;20036;-67
2022/12/28 05:46:54;;;;;;;2.33;0.60;;;;;;;5.99;96.76;100662.03;5071709;28;20137;-66
2022/12/28 05:49:20;;;;;;;0.52;0.50;;;;;;;6.00;96.73;100661.09;5071460;28;20044;-67
2022/12/28 05:51:48;;;;;;;1.10;0.65;;;;;;;6.08;96.27;100663.91;5072142;28;20208;-67
2022/12/28 05:54:13;;;;;;;0.25;0.25;;;;;;;6.19;94.44;100655.00;5070733;28;20047;-67
2022/12/28 05:56:38;;;;;;;1.38;0.40;;;;;;;6.20;94.51;100646.94;5072463;28;20033;-66
2022/12/28 05:59:05;;;;;;;0.63;0.63;;;;;;;6.14;94.59;100644.84;5071383;28;20045;-67
2022/12/28 06:01:34;;;;;;;0.45;0.45;;;;;;;6.25;93.65;100639.41;5070288;28;20032;-67
2022/12/28 06:04:10;;;;;;;0.47;0.30;;;;;;;6.30;93.21;100643.47;5072199;28;20089;-67
2022/12/28 06:06:36;;;;;;;0.65;0.45;;;;;;;6.30;93.21;100640.81;5069777;28;20029;-67
2022/12/28 06:09:02;;;;;;;0.40;0.40;;;;;;;6.33;92.74;100643.22;5071089;28;20467;-67
2022/12/28 06:11:28;;;;;;;0.73;0.43;;;;;;;6.39;92.20;100637.34;5071033;28;20059;-67
2022/12/28 06:13:54;;;;;;;1.27;0.52;;;;;;;6.43;91.77;100636.13;5071117;28;20397;-67
2022/12/28 06:16:25;;;;;;;1.08;0.60;;;;;;;6.44;91.15;100640.44;5070664;28;20044;-67
2022/12/28 06:18:51;;;;;;;2.92;0.57;;;;;;;6.50;90.55;100642.53;5070408;28;20037;-67
2022/12/28 06:21:24;;;;;;;0.35;0.35;;;;;;;6.56;89.57;100636.69;5069688;28;20059;-67
2022/12/28 06:23:50;;;;;;;3.97;1.00;;;;;;;6.57;89.64;100632.22;5065484;28;20033;-66
2022/12/28 06:26:18;;;;;;;0.75;0.47;;;;;;;6.51;88.91;100628.31;5049194;28;20049;-66
2022/12/28 06:28:44;;;;;;;0.40;0.40;;;;;;;6.62;88.82;100630.00;5048944;28;20069;-66
2022/12/28 06:31:31;;;;;;;0.40;0.40;;;;;;;6.70;88.02;100638.09;5048949;28;20080;-66
2022/12/28 06:33:59;;;;;;;2.88;1.02;;;;;;;6.70;87.97;100627.50;5036209;28;20104;-66
2022/12/28 06:36:30;;;;;;;1.30;0.73;;;;;;;6.72;87.55;100634.34;5036532;28;20051;-66
2022/12/28 06:38:57;;;;;;;0.95;0.63;;;;;;;6.70;88.33;100633.63;5035762;28;20455;-66
2022/12/28 06:41:24;;;;;;;2.50;0.80;;;;;;;6.70;87.76;100632.78;5035025;28;20088;-66
2022/12/28 06:43:50;;;;;;;0.63;0.50;;;;;;;6.66;88.68;100619.03;5035398;28;20045;-66
2022/12/28 06:46:18;;;;;;;6.25;0.95;;;;;;;6.71;87.81;100613.28;5035995;28;20099;-66
2022/12/28 06:48:44;;;;;;;;;;;;;;;6.85;86.19;100620.84;5035292;28;20128;-65
2022/12/28 06:51:13;;;;;;;2.63;1.05;;;;;;;6.82;86.80;100617.63;5035149;28;19956;-66
2022/12/28 06:53:38;;;;;;;0.90;0.70;;;;;;;6.82;86.82;100609.66;5034757;28;20087;-67
2022/12/28 06:56:05;;;;;;;0.63;0.63;;;;;;;6.83;86.92;100606.03;5036446;28;20453;-66
2022/12/28 06:58:31;;;;;;;1.30;0.63;;;;;;;6.76;87.86;100603.94;5035607;28;20226;-66
2022/12/28 07:01:04;;;;;;;1.48;0.80;;;;;;;6.86;86.69;100613.72;5033898;28;20046;-66
2022/12/28 07:03:30;;;;;;;3.15;1.10;;;;;;;6.85;87.37;100609.41;5034541;28;20395;-65
2022/12/28 07:06:03;;;;;;;1.25;0.63;;;;;;;6.84;86.75;100607.72;5034440;28;20047;-66
2022/12/28 07:08:29;;;;;;;2.10;0.70;;;;;;;6.92;86.59;100605.22;5035717;28;20044;-66
2022/12/28 07:11:00;;;;;;;1.05;0.77;;;;;;;6.94;86.65;100609.38;5034540;28;20440;-66
2022/12/28 07:13:25;;;;;;;4.72;0.90;;;;;;;7.03;85.64;100610.34;5034186;28;20109;-66
2022/12/28 07:15:50;;;;;;;5.18;1.45;;;;;;;7.06;85.56;100605.59;5034248;28;20443;-66
2022/12/28 07:18:16;;;;;;;1.80;0.80;;;;;;;7.11;85.38;100605.19;5032788;28;20045;-66
2022/12/28 07:20:41;;;;;;;0.80;0.80;;;;;;;7.17;85.02;100601.97;5032697;28;20038;-66
2022/12/28 07:23:06;;;;;;;0.70;0.70;;;;;;;7.17;85.59;100598.47;5034775;28;20042;-66
2022/12/28 07:25:32;;;;;;;1.25;0.75;;;;;;;7.23;84.41;100596.06;5033124;28;20490;-66
2022/12/28 07:27:57;;;;;;;3.15;1.23;;;;;;;7.26;84.50;100595.81;5034696;28;20045;-68
2022/12/28 07:30:23;;;;;;;0.75;0.73;;;;;;;7.30;83.52;100597.19;5034176;28;20087;-72
2022/12/28 07:32:48;;;;;;;3.92;1.30;;;;;;;7.38;83.61;100593.00;5033108;28;20037;-68
2022/12/28 07:35:13;;;;;;;2.90;1.27;;;;;;;7.42;83.12;100591.72;5033169;28;20047;-67
2022/12/28 07:37:39;;;;;;;3.35;1.00;;;;;;;7.41;83.80;100587.41;5032777;28;20048;-67
2022/12/28 07:40:05;;;;;;;2.88;1.40;;;;;;;7.40;84.07;100583.91;5032940;28;20064;-68
2022/12/28 07:42:30;;;;;;;4.40;1.33;;;;;;;7.46;83.05;100585.97;5032998;28;20029;-68
2022/12/28 07:44:56;;;;;;;0.43;0.43;;;;;;;7.48;83.16;100583.19;5031947;28;20040;-68
2022/12/28 07:47:21;;;;;;;4.13;0.82;;;;;;;7.56;81.72;100584.16;5032526;28;20053;-67
2022/12/28 07:49:46;;;;;;;0.50;0.50;;;;;;;7.55;82.07;100576.31;5032777;28;20069;-67
2022/12/28 07:52:12;;;;;;;2.15;0.98;;;;;;;7.54;81.80;100578.13;5032769;28;20041;-68
2022/12/28 07:54:37;;;;;;;6.15;2.78;;;;;;;7.57;83.28;100582.31;5032692;28;20048;-68
2022/12/28 07:57:02;;;;;;;2.45;0.90;;;;;;;7.56;82.54;100577.97;5032484;28;20196;-68
2022/12/28 07:59:28;;;;;;;2.97;1.33;;;;;;;7.65;81.17;100571.81;5032515;28;20080;-69
2022/12/28 08:01:53;;;;;;;7.50;1.40;;;;;;;7.68;81.76;100579.47;5032527;28;20033;-68
2022/12/28 08:04:19;;;;;;;2.10;0.80;;;;;;;7.72;80.92;100572.06;5032591;28;20549;-68
2022/12/28 08:06:45;;;;;;;3.58;1.23;;;;;;;7.75;80.92;100569.94;5041383;28;20647;-68
2022/12/28 08:09:12;;;;;;;0.60;0.60;;;;;;;7.77;80.41;100568.00;5052080;28;20040;-69
2022/12/28 08:11:43;;;;;;;1.73;1.13;;;;;;;7.77;81.31;100575.13;5052345;28;20041;-69
2022/12/28 08:14:09;;;;;;;2.47;0.85;;;;;;;7.80;82.01;100572.16;5052344;28;20056;-70
2022/12/28 08:16:37;;;;;;;2.13;0.70;;;;;;;7.86;79.82;100563.63;5052294;28;20029;-69
2022/12/28 08:19:03;;;;;;;3.58;0.90;;;;;;;7.88;79.18;100566.94;5052348;28;20090;-69
2022/12/28 08:21:37;;;;;;;1.25;0.77;;;;;;;7.94;78.62;100570.81;5052221;28;20397;-69
2022/12/28 08:24:04;;;;;;;1.13;0.68;;;;;;;7.95;79.02;100575.97;5052410;28;20049;-67
2022/12/28 08:26:32;;;;;;;1.27;0.75;;;;;;;8.01;78.61;100569.25;5051977;28;20059;-68
2022/12/28 08:29:01;;;;;;;5.68;1.20;;;;;;;8.05;78.15;100568.81;5051984;28;20086;-68
2022/12/28 08:31:30;;;;;;;4.70;1.30;;;;;;;8.12;78.06;100571.69;5052257;28;20509;-68
2022/12/28 08:33:57;;;;;;;1.80;0.77;;;;;;;8.14;77.72;100567.06;5051955;28;20032;-67
2022/12/28 08:36:23;;;;;;;2.35;0.77;;;;;;;8.17;77.64;100564.13;5051936;28;20041;-67
2022/12/28 08:38:49;;;;;;;2.42;0.60;;;;;;;8.23;76.76;100563.53;5051549;28;20120;-67
2022/12/28 08:41:17;;;;;;;0.85;0.73;;;;;;;8.28;75.95;100557.75;5051870;28;20375;-59
2022/12/28 08:43:43;;;;;;;1.63;0.68;;;;;;;8.35;75.78;100559.72;5051784;28;20514;-62
2022/12/28 08:46:20;;;;;;;0.63;0.63;;;;;;;8.40;75.75;100559.25;5052027;28;20546;-62
2022/12/28 08:48:47;;;;;;;1.08;0.88;;;;;;;8.43;76.06;100564.25;5051861;28;20032;-68
2022/12/28 08:51:24;;;;;;;1.15;1.02;;;;;;;8.48;76.14;100564.66;5050334;28;20072;-67
2022/12/28 08:53:49;;;;;;;1.25;0.63;;;;;;;8.53;74.57;100567.66;5051798;28;20374;-68
2022/12/28 08:56:21;;;;;;;1.75;0.70;;;;;;;8.55;74.43;100564.88;5051347;28;20021;-67
2022/12/28 08:58:47;;;;;;;5.35;0.95;;;;;;;8.59;75.27;100550.28;5051389;28;20063;-67
2022/12/28 09:01:25;;;;;;;3.42;1.10;;;;;;;8.65;74.29;100550.50;5051765;28;20405;-67
2022/12/28 09:03:52;;;;;;;1.85;0.80;;;;;;;8.73;72.84;100555.03;5051598;28;20044;-68
2022/12/28 09:06:21;;;;;;;1.85;0.82;;;;;;;8.74;74.13;100546.13;5051565;28;20486;-68
2022/12/28 09:08:55;;;;;;;1.88;0.90;;;;;;;8.77;73.54;100544.97;5051211;28;20131;-68
2022/12/28 09:11:21;;;;;;;1.70;0.85;;;;;;;8.82;73.04;100548.81;5051411;28;20041;-68
2022/12/28 09:13:47;;;;;;;2.88;0.70;;;;;;;8.85;73.14;100555.63;5050261;28;20045;-67
2022/12/28 09:16:15;;;;;;;1.85;1.10;;;;;;;8.86;72.90;100547.50;5051388;28;20037;-68
2022/12/28 09:18:42;;;;;;;2.58;0.80;;;;;;;8.90;73.01;100558.69;5051085;28;20041;-68
2022/12/28 09:21:16;;;;;;;1.38;0.77;;;;;;;8.91;73.09;100550.53;5051243;28;20132;-68
2022/12/28 09:23:43;;;;;;;0.82;0.73;;;;;;;8.94;74.23;100560.88;5051665;28;20114;-68
2022/12/28 09:26:14;;;;;;;1.63;0.80;;;;;;;8.96;73.83;100556.22;5051435;28;20044;-67
2022/12/28 09:28:51;;;;;;;0.82;0.63;;;;;;;9.06;73.02;100555.28;5050903;28;20287;-67
2022/12/28 09:31:18;;;;;;;1.30;0.70;;;;;;;9.04;73.05;100555.44;5051334;28;20132;-67
2022/12/28 09:34:02;;;;;;;3.05;0.85;;;;;;;9.09;72.15;100555.00;5051374;28;20032;-67
2022/12/28 09:36:34;;;;;;;2.30;1.70;;;;;;;9.14;73.01;100556.19;5056143;28;20033;-67
2022/12/28 09:39:15;;;;;;;1.15;0.65;;;;;;;9.12;72.53;100558.16;5071760;28;20055;-67
2022/12/28 09:41:47;;;;;;;0.80;0.70;;;;;;;9.16;72.33;100564.00;5071240;28;20555;-67
2022/12/28 09:44:15;;;;;;;2.20;0.90;;;;;;;9.21;71.67;100561.72;5070911;28;20039;-67
2022/12/28 09:46:46;;;;;;;0.75;0.47;;;;;;;9.26;70.16;100546.13;5070781;28;20035;-67
2022/12/28 09:49:15;;;;;;;0.60;0.60;;;;;;;9.37;69.74;100550.34;5070114;28;20173;-68
2022/12/28 09:51:57;;;;;;;0.75;0.40;;;;;;;9.41;71.29;100551.69;5070842;28;20028;-67
2022/12/28 09:54:23;;;;;;;1.63;0.70;;;;;;;9.43;70.51;100560.34;5070834;28;20040;-68
2022/12/28 09:56:50;;;;;;;0.98;0.70;;;;;;;9.41;70.22;100559.69;5070529;28;20370;-66
2022/12/28 09:59:22;;;;;;;1.77;1.02;;;;;;;9.40;70.29;100556.19;5069569;28;20049;-68
2022/12/28 10:01:55;;;;;;;2.55;0.52;;;;;;;9.45;69.44;100550.38;5070807;28;20036;-68
2022/12/28 10:04:21;;;;;;;2.05;0.55;;;;;;;9.51;69.84;100550.56;5070783;28;20040;-68
2022/12/28 10:06:46;;;;;;;0.93;0.73;;;;;;;9.58;69.48;100549.94;5070621;28;20055;-68
2022/12/28 10:09:24;;;;;;;0.52;0.38;;;;;;;9.65;70.11;100542.97;5072903;28;20111;-68
2022/12/28 10:11:49;;;;;;;1.15;0.70;;;;;;;9.59;69.83;100536.50;5074489;28;20089;-69
2022/12/28 10:14:29;;;;;;;1.65;0.70;;;;;;;9.72;69.26;100538.72;5074386;28;20470;-68
2022/12/28 10:16:55;;;;;;;0.55;0.55;;;;;;;9.74;68.92;100528.75;5073998;28;20032;-68
2022/12/28 10:19:26;;;;;;;1.42;0.70;;;;;;;9.83;70.50;100534.91;5073643;28;20037;-68
2022/12/28 10:21:56;;;;;;;0.50;0.47;;;;;;;9.91;67.50;100526.94;5073857;28;20123;-68
2022/12/28 10:24:23;;;;;;;0.30;0.30;;;;;;;9.98;67.37;100520.00;5074311;28;20120;-68
2022/12/28 10:26:48;;;;;;;3.13;0.70;;;;;;;10.04;67.60;100517.53;5073703;28;20075;-69
2022/12/28 10:29:18;;;;;;;0.93;0.80;;;;;;;10.11;67.06;100515.03;5072773;28;20044;-69
2022/12/28 10:31:55;;;;;;;0.80;0.60;;;;;;;10.17;66.29;100511.72;5073744;28;20495;-68
2022/12/28 10:34:21;;;;;;;1.27;0.80;;;;;;;10.20;65.90;100502.56;5073862;28;20032;-68
2022/12/28 10:36:48;;;;;;;0.95;0.60;;;;;;;10.20;66.24;100495.41;5073948;28;20515;-69
2022/12/28 10:39:19;;;;;;;0.98;0.70;;;;;;;10.25;66.34;100497.63;5073229;28;20040;-68
2022/12/28 10:41:45;;;;;;;0.43;0.40;;;;;;;10.32;65.08;100488.81;5074014;28;20513;-68
2022/12/28 10:44:18;;;;;;;0.52;0.38;;;;;;;10.33;64.43;100479.81;5073929;28;20040;-68
2022/12/28 10:46:58;;;;;;;1.17;0.50;;;;;;;10.31;64.94;100486.31;5073913;28;20543;-68
2022/12/28 10:49:26;;;;;;;0.80;0.45;;;;;;;10.35;65.50;100479.63;5073807;28;20032;-59
2022/12/28 10:52:14;;;;;;;1.92;0.60;;;;;;;10.36;64.98;100475.97;5073942;28;20147;-69
2022/12/28 10:54:39;;;;;;;;;;;;;;;10.47;65.56;100461.50;5072960;28;20040;-68
2022/12/28 10:57:05;;;;;;;1.20;0.55;;;;;;;10.42;64.47;100464.66;5073274;28;19923;-69
2022/12/28 10:59:31;;;;;;;1.58;0.60;;;;;;;10.50;64.21;100461.19;5072169;28;20051;-69
2022/12/28 11:02:20;;;;;;;0.57;0.40;;;;;;;10.59;64.95;100458.31;5073456;28;20090;-69
2022/12/28 11:05:01;;;;;;;0.68;0.40;;;;;;;10.67;64.52;100465.47;5073444;28;20063;-69
2022/12/28 11:07:29;;;;;;;0.50;0.50;;;;;;;10.69;64.72;100447.47;5073096;28;20036;-68
2022/12/28 11:10:21;;;;;;;2.22;0.70;;;;;;;10.63;64.52;100436.66;5073623;28;20115;-69
2022/12/28 11:12:48;;;;;;;1.10;0.52;;;;;;;10.60;63.67;100438.69;5073749;28;20032;-69
2022/12/28 11:15:15;;;;;;;1.05;0.50;;;;;;;10.58;64.43;100440.69;5073457;28;20105;-69
2022/12/28 11:17:41;;;;;;;;;;;;;;;10.55;64.06;100441.00;5073606;28;20036;-69
2022/12/28 11:20:15;;;;;;;0.45;0.45;;;;;;;10.55;66.39;100440.19;5073313;28;20389;-69
2022/12/28 11:22:40;;;;;;;1.90;0.85;;;;;;;10.58;64.96;100435.38;5073326;28;20107;-69
2022/12/28 11:25:06;;;;;;;2.47;1.00;;;;;;;10.71;64.22;100428.69;5073600;28;20090;-69
2022/12/28 11:27:33;;;;;;;0.70;0.50;;;;;;;11.11;63.54;100417.06;5073167;28;20040;-69
2022/12/28 11:29:58;;;;;;;2.47;0.77;;;;;;;11.93;60.42;100429.00;5073242;28;20060;-68
2022/12/28 11:32:32;;;;;;;2.08;0.90;;;;;;;12.87;56.83;100420.66;5073332;28;20498;-70
2022/12/28 11:34:59;;;;;;;0.75;0.60;;;;;;;13.55;54.66;100403.44;5073332;28;20122;-69
2022/12/28 11:37:24;;;;;;;1.08;0.70;;;;;;;13.86;54.68;100405.84;5071274;28;20485;-69
2022/12/28 11:39:51;;;;;;;0.35;0.28;;;;;;;14.70;51.49;100400.59;5072938;28;20036;-70
2022/12/28 11:42:35;;;;;;;1.17;0.60;;;;;;;15.19;49.85;100405.84;5072862;28;20033;-70
2022/12/28 11:45:24;;;;;;;2.03;0.60;;;;;;;15.59;49.21;100406.00;5072757;28;20405;-69
2022/12/28 11:47:49;;;;;;;1.23;0.60;;;;;;;15.12;48.99;100399.59;5043659;28;20638;-69
2022/12/28 11:50:33;;;;;;;0.80;0.52;;;;;;;15.49;47.39;100392.13;5072674;28;20047;-69
2022/12/28 11:53:00;;;;;;;1.45;0.90;;;;;;;15.37;48.03;100381.13;5072707;28;20359;-69
2022/12/28 11:55:44;;;;;;;2.78;1.00;;;;;;;15.56;48.41;100382.22;5072517;28;20410;-70
2022/12/28 11:58:43;;;;;;;0.73;0.60;;;;;;;14.86;49.20;100370.78;5072340;28;20037;-70
2022/12/28 12:01:31;;;;;;;1.02;0.73;;;;;;;14.89;49.07;100374.94;5039076;28;20083;-69
2022/12/28 12:03:56;;;;;;;1.67;0.73;;;;;;;15.41;48.09;100371.66;5072327;28;20090;-68
2022/12/28 12:06:40;;;;;;;2.42;0.80;;;;;;;15.04;48.54;100364.06;5072288;28;20036;-69
2022/12/28 12:09:25;;;;;;;1.17;0.73;;;;;;;14.41;50.07;100358.72;5071985;28;20067;-71
2022/12/28 12:11:59;;;;;;;1.17;0.80;;;;;;;13.69;51.29;100354.41;5072309;28;20036;-69
2022/12/28 12:14:46;;;;;;;3.50;1.40;;;;;;;13.24;52.98;100359.06;5068477;28;20040;-70
2022/12/28 12:17:25;;;;;;;0.65;0.60;;;;;;;12.84;54.72;100346.16;5071302;28;20043;-69
2022/12/28 12:19:56;;;;;;;1.98;0.95;;;;;;;12.47;55.83;100342.59;5072158;28;20055;-69
2022/12/28 12:22:39;;;;;;;4.78;0.85;;;;;;;11.98;57.36;100335.03;5072025;28;20044;-69
2022/12/28 12:25:38;;;;;;;2.63;0.98;;;;;;;11.85;58.68;100332.13;5070853;28;20055;-69
2022/12/28 12:28:25;;;;;;;1.13;0.80;;;;;;;11.83;59.52;100324.31;5071637;28;20048;-70
2022/12/28 12:30:52;;;;;;;1.52;0.70;;;;;;;12.02;58.64;100328.31;5071313;28;20090;-70
2022/12/28 12:33:25;;;;;;;2.50;0.75;;;;;;;11.83;58.86;100329.66;5071872;28;20035;-69
2022/12/28 12:36:03;;;;;;;0.80;0.60;;;;;;;11.71;59.86;100330.22;5071867;28;20520;-69
2022/12/28 12:38:39;;;;;;;2.92;1.60;;;;;;;11.70;59.72;100324.03;5071513;28;20390;-70
2022/12/28 12:41:23;;;;;;;2.47;1.00;;;;;;;11.55;60.38;100316.00;5071735;28;20132;-69
2022/12/28 12:44:35;;;;;;;2.42;0.70;;;;;;;11.64;60.84;100316.75;5045329;28;20035;-70
2022/12/28 12:47:03;;;;;;;2.85;0.90;;;;;;;11.63;61.06;100320.44;5031654;28;20021;-69
2022/12/28 12:49:53;;;;;;;1.30;0.50;;;;;;;11.59;61.29;100317.28;5031512;28;20351;-70
2022/12/28 12:53:03;;;;;;;0.98;0.70;;;;;;;11.56;61.15;100306.97;5031655;28;20483;-68
2022/12/28 12:55:46;;;;;;;1.73;0.90;;;;;;;11.54;61.04;100301.00;5034181;28;20409;-71
2022/12/28 12:58:56;;;;;;;0.90;0.65;;;;;;;11.56;60.88;100296.31;5031354;28;20029;-70
2022/12/28 13:01:21;;;;;;;3.22;1.67;;;;;;;11.61;60.70;100296.59;5024630;28;20135;-70
2022/12/28 13:03:52;;;;;;;2.40;1.02;;;;;;;11.72;60.76;100278.50;5031666;28;20033;-68
2022/12/28 13:06:22;;;;;;;0.43;0.40;;;;;;;11.66;60.73;100280.88;5031253;28;20041;-67
2022/12/28 13:08:52;;;;;;;1.83;0.68;;;;;;;11.57;60.67;100265.94;5031113;28;20041;-68
2022/12/28 13:11:19;;;;;;;0.70;0.70;;;;;;;11.55;60.15;100243.97;5031370;28;20033;-68
2022/12/28 13:13:47;;;;;;;0.82;0.50;;;;;;;11.51;60.53;100250.66;5031541;28;20044;-68
2022/12/28 13:16:17;;;;;;;0.75;0.30;;;;;;;11.62;61.52;100247.56;5031420;28;20037;-68
2022/12/28 13:18:57;;;;;;;0.75;0.65;;;;;;;11.68;61.32;100238.84;5031139;28;20120;-68
2022/12/28 13:21:25;;;;;;;0.50;0.47;;;;;;;11.64;61.02;100232.19;5031569;28;20406;-68
2022/12/28 13:23:51;;;;;;;4.63;1.75;;;;;;;11.58;60.49;100232.09;5031849;28;20041;-68
2022/12/28 13:26:22;;;;;;;0.60;0.40;;;;;;;11.56;60.57;100242.13;5031234;28;20108;-68
2022/12/28 13:28:56;;;;;;;2.00;0.57;;;;;;;11.55;60.66;100227.97;5046421;28;20411;-70
2022/12/28 13:31:31;;;;;;;0.38;0.38;;;;;;;11.49;61.00;100226.00;5031184;28;20050;-68
2022/12/28 13:34:02;;;;;;;0.63;0.35;;;;;;;11.42;61.19;100219.75;5031216;28;20087;-70
2022/12/28 13:36:28;;;;;;;0.85;0.65;;;;;;;11.37;61.40;100217.59;5030089;28;20045;-69
2022/12/28 13:39:09;;;;;;;0.75;0.52;;;;;;;11.26;61.74;100223.34;5030818;28;20045;-68
2022/12/28 13:41:36;;;;;;;0.88;0.60;;;;;;;11.29;62.19;100227.50;5031144;28;20043;-68
2022/12/28 13:44:18;;;;;;;1.25;0.60;;;;;;;11.18;63.13;100222.59;5034602;28;20110;-68
2022/12/28 13:46:49;;;;;;;0.45;0.30;;;;;;;11.23;62.87;100212.22;5035058;28;20041;-68
2022/12/28 13:49:17;;;;;;;1.63;0.63;;;;;;;11.27;63.67;100218.84;5034930;28;20171;-68
2022/12/28 13:51:43;;;;;;;0.80;0.73;;;;;;;11.27;63.26;100216.16;5034943;28;20032;-69
2022/12/28 13:54:09;;;;;;;1.23;0.47;;;;;;;11.39;62.84;100212.06;5034872;28;20041;-69
2022/12/28 13:56:38;;;;;;;0.52;0.50;;;;;;;11.46;62.75;100215.69;5034780;28;20037;-69
2022/12/28 13:59:08;;;;;;;0.80;0.60;;;;;;;11.58;62.13;100216.91;5035321;28;20061;-68
2022/12/28 14:01:38;;;;;;;0.73;0.47;;;;;;;11.60;62.16;100206.88;5054419;28;20497;-68
2022/12/28 14:04:08;;;;;;;0.85;0.40;;;;;;;11.55;61.39;100206.63;5054686;28;20463;-68
2022/12/28 14:06:34;;;;;;;1.42;0.90;;;;;;;11.63;61.41;100205.72;5054513;28;20052;-68
2022/12/28 14:09:00;;;;;;;0.75;0.60;;;;;;;11.62;61.37;100199.56;5054270;28;20037;-68
2022/12/28 14:11:26;;;;;;;2.80;0.60;;;;;;;11.70;61.31;100201.31;5054556;28;20131;-69
2022/12/28 14:13:53;;;;;;;0.90;0.40;;;;;;;11.73;61.08;100202.78;5054529;28;20040;-68
2022/12/28 14:16:19;;;;;;;1.33;0.50;;;;;;;11.71;61.08;100196.78;5054363;28;20040;-68
2022/12/28 14:18:45;;;;;;;0.80;0.50;;;;;;;11.69;61.69;100186.31;5054109;28;20219;-68
2022/12/28 14:21:11;;;;;;;2.17;1.15;;;;;;;11.64;61.04;100178.00;5054386;28;20052;-68
2022/12/28 14:23:38;;;;;;;0.95;0.65;;;;;;;11.74;61.38;100175.09;5054360;28;20045;-68
2022/12/28 14:26:17;;;;;;;0.45;0.30;;;;;;;11.78;60.85;100179.03;5054403;28;20407;-69
2022/12/28 14:28:46;;;;;;;2.67;0.60;;;;;;;11.82;61.10;100177.72;5054073;28;20037;-68
2022/12/28 14:31:18;;;;;;;1.70;0.98;;;;;;;11.85;60.64;100167.47;5054226;28;20041;-68
2022/12/28 14:33:52;;;;;;;0.90;0.65;;;;;;;11.83;60.75;100168.69;5054095;28;20044;-68
2022/12/28 14:36:25;;;;;;;0.85;0.50;;;;;;;11.82;60.71;100169.69;5054073;28;20140;-68
2022/12/28 14:38:53;;;;;;;0.85;0.47;;;;;;;11.71;60.61;100152.25;5053819;28;20056;-68
2022/12/28 14:41:24;;;;;;;;;;;;;;;11.73;60.40;100163.56;5054499;28;20033;-68
2022/12/28 14:43:53;;;;;;;2.63;1.30;;;;;;;11.66;61.75;100163.47;5054168;28;19921;-69
2022/12/28 14:46:37;;;;;;;0.68;0.60;;;;;;;11.65;61.16;100153.00;5053854;28;20040;-68
2022/12/28 14:49:27;;;;;;;0.40;0.40;;;;;;;11.52;61.13;100156.28;5053610;28;20049;-68
2022/12/28 14:52:15;;;;;;;0.52;0.50;;;;;;;11.48;61.77;100149.66;5053683;28;20044;-69
2022/12/28 14:54:49;;;;;;;0.50;0.50;;;;;;;11.37;62.87;100158.09;5046405;28;20057;-69
2022/12/28 14:57:22;;;;;;;0.50;0.50;;;;;;;11.37;62.15;100150.09;5053356;28;20150;-69
2022/12/28 14:59:58;;;;;;;0.30;0.30;;;;;;;11.27;62.72;100145.00;5053840;28;20056;-70
2022/12/28 15:02:40;;;;;;;1.10;0.68;;;;;;;11.13;64.62;100146.63;5053668;28;20028;-69
2022/12/28 15:05:31;;;;;;;2.90;0.88;;;;;;;11.12;64.15;100139.63;5053704;28;20040;-69
2022/12/28 15:07:56;;;;;;;0.47;0.40;;;;;;;10.98;64.45;100136.94;5053258;28;20116;-69
2022/12/28 15:10:22;;;;;;;1.45;0.68;;;;;;;10.97;64.89;100136.09;5053494;28;20064;-69
2022/12/28 15:12:47;;;;;;;1.10;0.77;;;;;;;10.86;65.78;100133.84;5053521;28;20033;-69
2022/12/28 15:15:13;;;;;;;0.70;0.57;;;;;;;10.81;65.85;100136.22;5053341;28;20485;-69
2022/12/28 15:17:38;;;;;;;0.55;0.35;;;;;;;10.75;65.48;100136.91;5052953;28;20037;-69
2022/12/28 15:20:04;;;;;;;0.40;0.40;;;;;;;10.69;65.85;100137.63;5053356;28;20041;-70
2022/12/28 15:22:29;;;;;;;1.05;0.68;;;;;;;10.63;66.36;100128.53;5053256;28;20177;-69
2022/12/28 15:24:55;;;;;;;0.60;0.60;;;;;;;10.60;67.33;100134.19;5053206;28;20109;-69
2022/12/28 15:27:20;;;;;;;0.65;0.50;;;;;;;10.58;66.46;100120.22;5052777;28;20033;-69
2022/12/28 15:29:45;;;;;;;1.25;0.63;;;;;;;10.56;67.01;100125.72;5053082;28;20451;-69
2022/12/28 15:32:11;;;;;;;0.70;0.57;;;;;;;10.49;66.74;100111.44;5053046;28;20041;-69
2022/12/28 15:34:36;;;;;;;2.10;1.00;;;;;;;10.48;67.20;100111.63;5053060;28;20526;-69
2022/12/28 15:37:01;;;;;;;0.70;0.70;;;;;;;10.47;67.37;100108.13;5052961;28;20044;-69
2022/12/28 15:39:27;;;;;;;1.33;0.88;;;;;;;10.38;67.73;100103.88;5052770;28;20494;-69
2022/12/28 15:41:52;;;;;;;0.73;0.47;;;;;;;10.37;68.04;100098.69;5052947;28;20044;-69
2022/12/28 15:44:19;;;;;;;0.50;0.50;;;;;;;10.29;68.16;100103.06;5052859;28;20501;-69
2022/12/28 15:46:48;;;;;;;1.87;0.60;;;;;;;10.23;67.86;100095.78;5053137;28;20070;-69
2022/12/28 15:49:14;;;;;;;1.27;0.50;;;;;;;10.20;67.68;100088.13;5053246;28;20406;-69
2022/12/28 15:51:40;;;;;;;2.70;0.60;;;;;;;10.18;67.77;100091.97;5053425;28;20041;-69
2022/12/28 15:54:06;;;;;;;1.60;1.13;;;;;;;10.17;68.07;100098.28;5052745;28;20044;-69
2022/12/28 15:56:34;;;;;;;0.85;0.63;;;;;;;10.14;68.16;100090.66;5052631;28;20052;-69
2022/12/28 15:59:00;;;;;;;;;;;;;;;10.13;67.94;100095.16;5052857;28;20039;-69
2022/12/28 16:01:28;;;;;;;0.75;0.52;;;;;;;10.05;67.35;100082.72;5052619;28;20027;-69
2022/12/28 16:03:58;;;;;;;1.45;0.57;;;;;;;10.12;67.29;100084.69;5052564;28;20033;-69
2022/12/28 16:06:25;;;;;;;1.10;0.50;;;;;;;10.11;66.88;100085.69;5051584;28;20112;-69
2022/12/28 16:08:59;;;;;;;1.33;0.50;;;;;;;10.14;66.27;100090.66;5051999;28;20071;-69
2022/12/28 16:11:25;;;;;;;0.95;0.55;;;;;;;10.14;66.11;100088.81;5052260;28;20049;-70
2022/12/28 16:13:53;;;;;;;0.40;0.40;;;;;;;10.11;66.23;100093.66;5052363;28;20037;-69
2022/12/28 16:16:20;;;;;;;1.15;0.68;;;;;;;10.09;66.11;100088.50;5052137;28;20037;-69
2022/12/28 16:18:46;;;;;;;1.38;0.60;;;;;;;10.11;66.23;100093.66;5052351;28;20393;-69
2022/12/28 16:21:12;;;;;;;1.75;0.85;;;;;;;10.09;65.45;100085.84;5052160;28;20119;-70
2022/12/28 16:23:39;;;;;;;1.40;0.80;;;;;;;10.15;64.79;100076.34;5052238;28;20033;-69
2022/12/28 16:26:06;;;;;;;1.67;0.90;;;;;;;10.15;65.39;100085.16;5052090;28;20402;-69
2022/12/28 16:28:32;;;;;;;1.17;0.97;;;;;;;10.18;63.92;100078.66;5051811;28;20287;-70
2022/12/28 16:30:57;;;;;;;0.65;0.52;;;;;;;10.20;63.79;100079.31;5052042;28;20041;-69
2022/12/28 16:33:23;;;;;;;0.65;0.50;;;;;;;10.21;63.86;100078.31;5052143;28;20445;-69
2022/12/28 16:35:49;;;;;;;0.90;0.50;;;;;;;10.24;63.33;100083.31;5051932;28;20438;-70
2022/12/28 16:38:17;;;;;;;0.75;0.60;;;;;;;10.24;62.99;100075.34;5051607;28;20045;-70
2022/12/28 16:40:43;;;;;;;0.93;0.88;;;;;;;10.24;63.05;100083.31;5051733;28;20087;-69
2022/12/28 16:43:09;;;;;;;0.57;0.50;;;;;;;10.23;62.79;100084.31;5051702;28;20040;-66
2022/12/28 16:45:36;;;;;;;0.70;0.60;;;;;;;10.20;62.73;100073.97;5051801;28;20398;-67
2022/12/28 16:48:02;;;;;;;0.93;0.70;;;;;;;10.25;61.97;100077.81;5051388;28;20552;-66
2022/12/28 16:50:27;;;;;;;0.55;0.50;;;;;;;10.25;62.11;100067.16;5051858;28;20086;-67
2022/12/28 16:52:53;;;;;;;0.52;0.40;;;;;;;10.27;61.93;100072.31;5051561;28;20048;-67
2022/12/28 16:55:18;;;;;;;0.60;0.60;;;;;;;10.23;62.68;100066.50;5051561;28;20041;-67
2022/12/28 16:57:45;;;;;;;1.08;0.68;;;;;;;10.24;62.12;100062.03;5051689;28;20033;-67
2022/12/28 17:00:11;;;;;;;0.47;0.47;;;;;;;10.27;61.45;100059.81;5050348;28;20040;-66
2022/12/28 17:02:36;;;;;;;0.82;0.68;;;;;;;10.26;62.23;100057.34;5051648;28;20029;-66
2022/12/28 17:05:01;;;;;;;0.28;0.28;;;;;;;10.26;61.80;100052.84;5051630;28;20409;-66